This is the latest recevied weather packets stored in our database for station/object VK4RM-13. If no packets are shown the sender has not sent any weather packets the latest 10 day(s).
| Time | Temp. | Humidity | Pressure | Rain* | Wind** | Luminosity | Snow |
|---|---|---|---|---|---|---|---|
| 1777771004 | 25° C | 78% | 996.5 hPa | 0 mm | - | - | - |
| 1777770404 | 24.44° C | 77% | 996.6 hPa | 0 mm | - | - | - |
| 1777769804 | 24.44° C | 78% | 996.8 hPa | 0 mm | - | - | - |
| 1777769205 | 24.44° C | 80% | 996.9 hPa | 0 mm | - | - | - |
| 1777768605 | 23.89° C | 81% | 997 hPa | 0 mm | - | - | - |
| 1777768005 | 23.89° C | 81% | 997.1 hPa | 0 mm | - | - | - |
| 1777767405 | 23.89° C | 82% | 997.2 hPa | 0 mm | - | - | - |
| 1777766805 | 23.33° C | 84% | 997.2 hPa | 0 mm | - | - | - |
| 1777766205 | 23.33° C | 84% | 997.3 hPa | 0 mm | - | - | - |
| 1777765605 | 23.33° C | 83% | 997.4 hPa | 0 mm | - | - | - |
| 1777765005 | 23.89° C | 81% | 997.3 hPa | 0 mm | - | - | - |
| 1777764405 | 23.33° C | 85% | 997.3 hPa | 0 mm | - | - | - |
| 1777763805 | 22.78° C | 87% | 997.2 hPa | 0 mm | - | - | - |
| 1777763205 | 22.22° C | 89% | 997.2 hPa | 0.25 mm | - | - | - |
| 1777762605 | 21.67° C | 90% | 997.2 hPa | 0.25 mm | - | - | - |
| 1777762005 | 21.67° C | 91% | 997.2 hPa | 0.25 mm | - | - | - |
| 1777761405 | 21.67° C | 91% | 997.1 hPa | 0.25 mm | - | - | - |
| 1777760805 | 21.67° C | 91% | 997 hPa | 0.25 mm | - | - | - |
| 1777760205 | 21.67° C | 90% | 996.8 hPa | 0.25 mm | - | - | - |
| 1777759605 | 21.67° C | 89% | 996.7 hPa | 0 mm | - | - | - |
| 1777759005 | 21.67° C | 89% | 996.6 hPa | 0 mm | - | - | - |
| 1777758405 | 21.67° C | 89% | 996.5 hPa | 0 mm | - | - | - |
| 1777757805 | 21.11° C | 89% | 996.4 hPa | 0 mm | - | - | - |
| 1777757205 | 21.11° C | 90% | 996.3 hPa | 0 mm | - | - | - |
| 1777756605 | 21.11° C | 90% | 996.2 hPa | 0 mm | - | - | - |
* Rain latest hour (hover to see other rain measurements)
** Current wind speed in m/s (hover to see current wind gust speed)